Shinkoumaru No 5 — JD3346 — position and weather

sailwx.info

Track history (hours):
 
Tides and Currents Weather Stations Pressure Air Temp Water Temp Dewpoint Dewpoint Depression Visibility Wind Speed Wind Dir Waves Ship Positions

Shinkoumaru No 5

Last reported at 2017-Nov-10 08:05 UTC. Time now 2017-Nov-22 09:23 UTC.
Position N 34°53' E 139°48'.
Warning: this ship's position is 12 days out of date.

Length 75 m; draft 4.2 m.

Type: Cargo ship. MMSI: 431003394.

Date/timePositionNaut miles runAvg speedWind from/ knotsBaromVisibWave heightAir tempDewpointWater temp
2017-Nov-10 08:05N 34°53' E 139°48'213.4
2017-Nov-10 07:55N 34°54' E 139°46'613.6
2017-Nov-10 07:30N 34°60' E 139°44'713.6
2017-Nov-10 07:00N 35°06' E 139°45'713.4
2017-Nov-10 06:30N 35°13' E 139°46'612.8
2017-Nov-10 06:00N 35°19' E 139°43'611.9
2017-Nov-10 05:30N 35°25' E 139°43'713.2
2017-Nov-10 05:00N 35°28' E 139°50'11 0.9
2017-Nov-09 17:13N 35°37' E 139°58'611.1
2017-Nov-09 16:40N 35°32' E 139°54'212.2
2017-Nov-09 16:30N 35°30' E 139°53'611.5
2017-Nov-09 16:00N 35°26' E 139°48'611.4
2017-Nov-09 15:30N 35°21' E 139°45'510.6
2017-Nov-09 15:00N 35°16' E 139°47'510.9
2017-Nov-09 14:30N 35°10' E 139°46'245 5.7
2017-Nov-07 19:50N 34°05' E 134°59'412.5
2017-Nov-07 19:30N 34°09' E 134°59'714.0
2017-Nov-07 19:00N 34°16' E 134°59'813.2
2017-Nov-07 18:25N 34°24' E 134°60'512.4
2017-Nov-07 17:59N 34°29' E 135°01'612.8
2017-Nov-07 17:30N 34°35' E 135°03'612.2
2017-Nov-07 17:00N 34°37' E 134°56'713.3
2017-Nov-07 16:28N 34°40' E 134°48'31 0.8
2017-Nov-06 02:19N 34°31' E 135°24'0 0.0
2017-Nov-06 01:49N 34°31' E 135°24'0 0.0
2017-Nov-06 01:25N 34°31' E 135°24'0 0.0
2017-Nov-06 00:55N 34°31' E 135°24'0 0.0
2017-Nov-06 00:25N 34°31' E 135°24'0 0.0
2017-Nov-05 23:55N 34°31' E 135°24'0 0.0
2017-Nov-05 23:25N 34°31' E 135°24'0 0.0
2017-Nov-05 22:55N 34°31' E 135°24'0 0.0
2017-Nov-05 22:25N 34°31' E 135°24'0 0.0
2017-Nov-05 21:55N 34°31' E 135°24'1 2.9
2017-Nov-05 21:29N 34°32' E 135°23'2 2.5
2017-Nov-05 20:52N 34°31' E 135°24'0 0.0
2017-Nov-05 20:27N 34°31' E 135°24'0 0.0
2017-Nov-05 19:45N 34°31' E 135°24'0 0.0
2017-Nov-05 19:28N 34°31' E 135°24'0 0.0
2017-Nov-05 18:51N 34°31' E 135°24'0 0.0
2017-Nov-05 18:21N 34°31' E 135°24'0 0.0
2017-Nov-05 17:57N 34°31' E 135°24'0 0.0
2017-Nov-05 17:27N 34°31' E 135°24'0 0.0
2017-Nov-05 16:57N 34°31' E 135°24'0 0.0
2017-Nov-05 15:52N 34°31' E 135°24'0 0.0
2017-Nov-05 15:27N 34°31' E 135°24'0 0.0
2017-Nov-05 14:57N 34°31' E 135°24'0 0.0
2017-Nov-05 14:28N 34°31' E 135°24'0 0.0
2017-Nov-05 13:57N 34°31' E 135°24'0 0.0
2017-Nov-05 13:27N 34°31' E 135°24'0 0.0
2017-Nov-05 12:57N 34°31' E 135°24'0 0.0
2017-Nov-05 12:27N 34°31' E 135°24'0 0.0
2017-Nov-05 11:45N 34°31' E 135°24'0 0.0
2017-Nov-05 11:27N 34°31' E 135°24'0 0.0
2017-Nov-05 10:51N 34°31' E 135°24'0 0.0
2017-Nov-05 10:27N 34°31' E 135°24'0 0.0
2017-Nov-05 09:57N 34°31' E 135°24'0 0.0
2017-Nov-05 09:27N 34°31' E 135°24'0 0.0
2017-Nov-05 08:51N 34°31' E 135°24'0 0.0
2017-Nov-05 08:27N 34°31' E 135°24'0 0.0
2017-Nov-05 07:57N 34°31' E 135°24'0 0.0
2017-Nov-05 00:33N 34°31' E 135°24'0 0.0
2017-Nov-05 00:15N 34°31' E 135°24'0 0.0
2017-Nov-04 23:33N 34°31' E 135°24'0 0.0
2017-Nov-04 23:27N 34°31' E 135°24'0 0.0
2017-Nov-04 22:39N 34°31' E 135°24'0 0.0
2017-Nov-04 22:27N 34°31' E 135°24'0 0.0
2017-Nov-04 21:57N 34°31' E 135°24'0 0.0
2017-Nov-04 21:27N 34°31' E 135°24'0 0.0
2017-Nov-04 20:57N 34°31' E 135°24'0 0.0
2017-Nov-04 20:27N 34°31' E 135°24'0 0.0
2017-Nov-04 19:57N 34°31' E 135°24'0 0.0
2017-Nov-04 19:15N 34°31' E 135°24'0 0.0
2017-Nov-04 18:57N 34°31' E 135°24'0 0.0
2017-Nov-04 18:15N 34°31' E 135°24'0 0.0
2017-Nov-04 17:51N 34°31' E 135°24'0 0.0
2017-Nov-04 17:27N 34°31' E 135°24'0 0.0
2017-Nov-04 16:57N 34°31' E 135°24'0 0.0
2017-Nov-04 15:51N 34°31' E 135°24'0 0.0
2017-Nov-04 15:21N 34°31' E 135°24'0 0.0
2017-Nov-04 14:57N 34°31' E 135°24'0 0.0
2017-Nov-04 14:27N 34°31' E 135°24'0 0.0
2017-Nov-04 13:57N 34°31' E 135°24'0 0.0
2017-Nov-04 13:27N 34°31' E 135°24'0 0.0
2017-Nov-04 12:51N 34°31' E 135°24'0 0.0
2017-Nov-04 11:45N 34°31' E 135°24'0 0.0
2017-Nov-04 11:15N 34°31' E 135°24'0 0.0
2017-Nov-04 10:45N 34°31' E 135°24'0 0.0
2017-Nov-04 10:21N 34°31' E 135°24'0 0.0
2017-Nov-04 04:39N 34°31' E 135°24'0 0.0
2017-Nov-04 03:21N 34°31' E 135°24'0 0.0
2017-Nov-04 02:57N 34°31' E 135°24'0 0.0
2017-Nov-04 00:57N 34°31' E 135°24'0 0.0
2017-Nov-04 00:21N 34°31' E 135°24'0 0.0
2017-Nov-03 23:57N 34°31' E 135°24'0 0.0
2017-Nov-03 23:21N 34°31' E 135°24'0 0.0
2017-Nov-03 22:57N 34°31' E 135°24'0 0.0
2017-Nov-03 22:09N 34°31' E 135°24'0 0.0
2017-Nov-03 21:57N 34°31' E 135°24'0 0.0
2017-Nov-03 21:27N 34°31' E 135°24'0 0.0
2017-Nov-03 21:00N 34°31' E 135°24'0 0.0
2017-Nov-03 20:29N 34°31' E 135°24'0 0.0
2017-Nov-03 20:00N 34°31' E 135°24'0 0.0
2017-Nov-03 19:30N 34°31' E 135°24'0 0.0
2017-Nov-03 19:00N 34°31' E 135°24'0 0.0
2017-Nov-03 18:30N 34°31' E 135°24'0 0.0
2017-Nov-03 18:00N 34°31' E 135°24'0 0.0
2017-Nov-03 17:30N 34°31' E 135°24'0 0.0
2017-Nov-03 17:00N 34°31' E 135°24'0 0.0
2017-Nov-03 16:30N 34°31' E 135°24'0 0.0
2017-Nov-03 16:00N 34°31' E 135°24'0 0.0
2017-Nov-03 15:30N 34°31' E 135°24'0 0.0
2017-Nov-03 15:00N 34°31' E 135°24'0 0.0
2017-Nov-03 14:30N 34°31' E 135°24'0 0.0
2017-Nov-03 14:00N 34°31' E 135°24'0 0.0
2017-Nov-03 13:30N 34°31' E 135°24'0 0.0
2017-Nov-03 13:00N 34°31' E 135°24'0 0.0
2017-Nov-03 12:30N 34°31' E 135°24'0 0.0
2017-Nov-03 12:00N 34°31' E 135°24'0 0.0
2017-Nov-03 11:30N 34°31' E 135°24'0 0.0
2017-Nov-03 11:00N 34°31' E 135°24'0 0.0
2017-Nov-03 10:30N 34°31' E 135°24'0 0.0
2017-Nov-03 10:00N 34°31' E 135°24'0 0.0
2017-Nov-03 09:30N 34°31' E 135°24'0 0.0
2017-Nov-03 09:00N 34°31' E 135°24'0 0.0
2017-Nov-03 08:30N 34°31' E 135°24'0 0.0
2017-Nov-03 08:00N 34°31' E 135°24'0 0.0
2017-Nov-03 07:30N 34°31' E 135°24'0 0.0
2017-Nov-03 06:56N 34°31' E 135°24'0 0.0
2017-Nov-03 06:30N 34°31' E 135°24'0 0.0
2017-Nov-03 06:00N 34°31' E 135°24'0 0.0
2017-Nov-03 05:30N 34°31' E 135°24'0 0.0
2017-Nov-03 05:00N 34°31' E 135°24'0 0.0
2017-Nov-03 04:29N 34°31' E 135°24'0 0.0
2017-Nov-03 03:56N 34°31' E 135°24'0 0.0
2017-Nov-03 03:27N 34°31' E 135°24'0 0.0
2017-Nov-03 03:00N 34°31' E 135°24'0 0.0
2017-Nov-03 02:29N 34°31' E 135°24'0 0.0
2017-Nov-03 01:54N 34°31' E 135°24'2 5.6
2017-Nov-03 01:29N 34°32' E 135°22'612.6
2017-Nov-03 01:00N 34°30' E 135°15'712.7
2017-Nov-03 00:28N 34°25' E 135°09'1711.3
2017-Nov-02 22:59N 34°10' E 135°00'  
Track history (hours):
 
Tides and Currents Weather Stations Pressure Air Temp Water Temp Dewpoint Dewpoint Depression Visibility Wind Speed Wind Dir Waves Ship Positions

Shinkoumaru No 5

Last reported at 2017-Nov-10 08:05 UTC. Time now 2017-Nov-22 09:23 UTC.
Position N 34°53' E 139°48'.
Warning: this ship's position is 12 days out of date.

Length 75 m; draft 4.2 m.

Type: Cargo ship. MMSI: 431003394.

Date/timePositionNaut miles runAvg speedWind from/ knotsBaromVisibWave heightAir tempDewpointWater temp
2017-Nov-10 08:05N 34°53' E 139°48'213.4
2017-Nov-10 07:55N 34°54' E 139°46'613.6
2017-Nov-10 07:30N 34°60' E 139°44'713.6
2017-Nov-10 07:00N 35°06' E 139°45'713.4
2017-Nov-10 06:30N 35°13' E 139°46'612.8
2017-Nov-10 06:00N 35°19' E 139°43'611.9
2017-Nov-10 05:30N 35°25' E 139°43'713.2
2017-Nov-10 05:00N 35°28' E 139°50'11 0.9
2017-Nov-09 17:13N 35°37' E 139°58'611.1
2017-Nov-09 16:40N 35°32' E 139°54'212.2
2017-Nov-09 16:30N 35°30' E 139°53'611.5
2017-Nov-09 16:00N 35°26' E 139°48'611.4
2017-Nov-09 15:30N 35°21' E 139°45'510.6
2017-Nov-09 15:00N 35°16' E 139°47'510.9
2017-Nov-09 14:30N 35°10' E 139°46'245 5.7
2017-Nov-07 19:50N 34°05' E 134°59'412.5
2017-Nov-07 19:30N 34°09' E 134°59'714.0
2017-Nov-07 19:00N 34°16' E 134°59'813.2
2017-Nov-07 18:25N 34°24' E 134°60'512.4
2017-Nov-07 17:59N 34°29' E 135°01'612.8
2017-Nov-07 17:30N 34°35' E 135°03'612.2
2017-Nov-07 17:00N 34°37' E 134°56'713.3
2017-Nov-07 16:28N 34°40' E 134°48'31 0.8
2017-Nov-06 02:19N 34°31' E 135°24'0 0.0
2017-Nov-06 01:49N 34°31' E 135°24'0 0.0
2017-Nov-06 01:25N 34°31' E 135°24'0 0.0
2017-Nov-06 00:55N 34°31' E 135°24'0 0.0
2017-Nov-06 00:25N 34°31' E 135°24'0 0.0
2017-Nov-05 23:55N 34°31' E 135°24'0 0.0
2017-Nov-05 23:25N 34°31' E 135°24'0 0.0
2017-Nov-05 22:55N 34°31' E 135°24'0 0.0
2017-Nov-05 22:25N 34°31' E 135°24'0 0.0
2017-Nov-05 21:55N 34°31' E 135°24'1 2.9
2017-Nov-05 21:29N 34°32' E 135°23'2 2.5
2017-Nov-05 20:52N 34°31' E 135°24'0 0.0
2017-Nov-05 20:27N 34°31' E 135°24'0 0.0
2017-Nov-05 19:45N 34°31' E 135°24'0 0.0
2017-Nov-05 19:28N 34°31' E 135°24'0 0.0
2017-Nov-05 18:51N 34°31' E 135°24'0 0.0
2017-Nov-05 18:21N 34°31' E 135°24'0 0.0
2017-Nov-05 17:57N 34°31' E 135°24'0 0.0
2017-Nov-05 17:27N 34°31' E 135°24'0 0.0
2017-Nov-05 16:57N 34°31' E 135°24'0 0.0
2017-Nov-05 15:52N 34°31' E 135°24'0 0.0
2017-Nov-05 15:27N 34°31' E 135°24'0 0.0
2017-Nov-05 14:57N 34°31' E 135°24'0 0.0
2017-Nov-05 14:28N 34°31' E 135°24'0 0.0
2017-Nov-05 13:57N 34°31' E 135°24'0 0.0
2017-Nov-05 13:27N 34°31' E 135°24'0 0.0
2017-Nov-05 12:57N 34°31' E 135°24'0 0.0
2017-Nov-05 12:27N 34°31' E 135°24'0 0.0
2017-Nov-05 11:45N 34°31' E 135°24'0 0.0
2017-Nov-05 11:27N 34°31' E 135°24'0 0.0
2017-Nov-05 10:51N 34°31' E 135°24'0 0.0
2017-Nov-05 10:27N 34°31' E 135°24'0 0.0
2017-Nov-05 09:57N 34°31' E 135°24'0 0.0
2017-Nov-05 09:27N 34°31' E 135°24'0 0.0
2017-Nov-05 08:51N 34°31' E 135°24'0 0.0
2017-Nov-05 08:27N 34°31' E 135°24'0 0.0
2017-Nov-05 07:57N 34°31' E 135°24'0 0.0
2017-Nov-05 00:33N 34°31' E 135°24'0 0.0
2017-Nov-05 00:15N 34°31' E 135°24'0 0.0
2017-Nov-04 23:33N 34°31' E 135°24'0 0.0
2017-Nov-04 23:27N 34°31' E 135°24'0 0.0
2017-Nov-04 22:39N 34°31' E 135°24'0 0.0
2017-Nov-04 22:27N 34°31' E 135°24'0 0.0
2017-Nov-04 21:57N 34°31' E 135°24'0 0.0
2017-Nov-04 21:27N 34°31' E 135°24'0 0.0
2017-Nov-04 20:57N 34°31' E 135°24'0 0.0
2017-Nov-04 20:27N 34°31' E 135°24'0 0.0
2017-Nov-04 19:57N 34°31' E 135°24'0 0.0
2017-Nov-04 19:15N 34°31' E 135°24'0 0.0
2017-Nov-04 18:57N 34°31' E 135°24'0 0.0
2017-Nov-04 18:15N 34°31' E 135°24'0 0.0
2017-Nov-04 17:51N 34°31' E 135°24'0 0.0
2017-Nov-04 17:27N 34°31' E 135°24'0 0.0
2017-Nov-04 16:57N 34°31' E 135°24'0 0.0
2017-Nov-04 15:51N 34°31' E 135°24'0 0.0
2017-Nov-04 15:21N 34°31' E 135°24'0 0.0
2017-Nov-04 14:57N 34°31' E 135°24'0 0.0
2017-Nov-04 14:27N 34°31' E 135°24'0 0.0
2017-Nov-04 13:57N 34°31' E 135°24'0 0.0
2017-Nov-04 13:27N 34°31' E 135°24'0 0.0
2017-Nov-04 12:51N 34°31' E 135°24'0 0.0
2017-Nov-04 11:45N 34°31' E 135°24'0 0.0
2017-Nov-04 11:15N 34°31' E 135°24'0 0.0
2017-Nov-04 10:45N 34°31' E 135°24'0 0.0
2017-Nov-04 10:21N 34°31' E 135°24'0 0.0
2017-Nov-04 04:39N 34°31' E 135°24'0 0.0
2017-Nov-04 03:21N 34°31' E 135°24'0 0.0
2017-Nov-04 02:57N 34°31' E 135°24'0 0.0
2017-Nov-04 00:57N 34°31' E 135°24'0 0.0
2017-Nov-04 00:21N 34°31' E 135°24'0 0.0
2017-Nov-03 23:57N 34°31' E 135°24'0 0.0
2017-Nov-03 23:21N 34°31' E 135°24'0 0.0
2017-Nov-03 22:57N 34°31' E 135°24'0 0.0
2017-Nov-03 22:09N 34°31' E 135°24'0 0.0
2017-Nov-03 21:57N 34°31' E 135°24'0 0.0
2017-Nov-03 21:27N 34°31' E 135°24'0 0.0
2017-Nov-03 21:00N 34°31' E 135°24'0 0.0
2017-Nov-03 20:29N 34°31' E 135°24'0 0.0
2017-Nov-03 20:00N 34°31' E 135°24'0 0.0
2017-Nov-03 19:30N 34°31' E 135°24'0 0.0
2017-Nov-03 19:00N 34°31' E 135°24'0 0.0
2017-Nov-03 18:30N 34°31' E 135°24'0 0.0
2017-Nov-03 18:00N 34°31' E 135°24'0 0.0
2017-Nov-03 17:30N 34°31' E 135°24'0 0.0
2017-Nov-03 17:00N 34°31' E 135°24'0 0.0
2017-Nov-03 16:30N 34°31' E 135°24'0 0.0
2017-Nov-03 16:00N 34°31' E 135°24'0 0.0
2017-Nov-03 15:30N 34°31' E 135°24'0 0.0
2017-Nov-03 15:00N 34°31' E 135°24'0 0.0
2017-Nov-03 14:30N 34°31' E 135°24'0 0.0
2017-Nov-03 14:00N 34°31' E 135°24'0 0.0
2017-Nov-03 13:30N 34°31' E 135°24'0 0.0
2017-Nov-03 13:00N 34°31' E 135°24'0 0.0
2017-Nov-03 12:30N 34°31' E 135°24'0 0.0
2017-Nov-03 12:00N 34°31' E 135°24'0 0.0
2017-Nov-03 11:30N 34°31' E 135°24'0 0.0
2017-Nov-03 11:00N 34°31' E 135°24'0 0.0
2017-Nov-03 10:30N 34°31' E 135°24'0 0.0
2017-Nov-03 10:00N 34°31' E 135°24'0 0.0
2017-Nov-03 09:30N 34°31' E 135°24'0 0.0
2017-Nov-03 09:00N 34°31' E 135°24'0 0.0
2017-Nov-03 08:30N 34°31' E 135°24'0 0.0
2017-Nov-03 08:00N 34°31' E 135°24'0 0.0
2017-Nov-03 07:30N 34°31' E 135°24'0 0.0
2017-Nov-03 06:56N 34°31' E 135°24'0 0.0
2017-Nov-03 06:30N 34°31' E 135°24'0 0.0
2017-Nov-03 06:00N 34°31' E 135°24'0 0.0
2017-Nov-03 05:30N 34°31' E 135°24'0 0.0
2017-Nov-03 05:00N 34°31' E 135°24'0 0.0
2017-Nov-03 04:29N 34°31' E 135°24'0 0.0
2017-Nov-03 03:56N 34°31' E 135°24'0 0.0
2017-Nov-03 03:27N 34°31' E 135°24'0 0.0
2017-Nov-03 03:00N 34°31' E 135°24'0 0.0
2017-Nov-03 02:29N 34°31' E 135°24'0 0.0
2017-Nov-03 01:54N 34°31' E 135°24'2 5.6
2017-Nov-03 01:29N 34°32' E 135°22'612.6
2017-Nov-03 01:00N 34°30' E 135°15'712.7
2017-Nov-03 00:28N 34°25' E 135°09'1711.3
2017-Nov-02 22:59N 34°10' E 135°00'  

Dump ship's entire track history